sensor_id;sensor_type;location;lat;lon;timestamp;P1;durP1;ratioP1;P2;durP2;ratioP2
46363;SDS011;32071;49.036;9.344;2023-12-04T00:00:04;16.30;;;8.17;;
46363;SDS011;32071;49.036;9.344;2023-12-04T00:02:30;16.47;;;7.70;;
46363;SDS011;32071;49.036;9.344;2023-12-04T00:04:55;18.03;;;8.53;;
46363;SDS011;32071;49.036;9.344;2023-12-04T00:07:21;20.00;;;7.57;;
46363;SDS011;32071;49.036;9.344;2023-12-04T00:09:46;19.10;;;8.57;;
46363;SDS011;32071;49.036;9.344;2023-12-04T00:12:12;16.77;;;8.27;;
46363;SDS011;32071;49.036;9.344;2023-12-04T00:14:37;15.40;;;7.87;;
46363;SDS011;32071;49.036;9.344;2023-12-04T00:17:03;19.30;;;8.90;;
46363;SDS011;32071;49.036;9.344;2023-12-04T00:19:29;15.63;;;7.70;;
46363;SDS011;32071;49.036;9.344;2023-12-04T00:21:54;22.33;;;10.30;;
46363;SDS011;32071;49.036;9.344;2023-12-04T00:24:20;19.90;;;9.50;;
46363;SDS011;32071;49.036;9.344;2023-12-04T00:26:45;15.63;;;7.90;;
46363;SDS011;32071;49.036;9.344;2023-12-04T00:29:11;21.63;;;8.83;;
46363;SDS011;32071;49.036;9.344;2023-12-04T00:31:36;17.73;;;8.10;;
46363;SDS011;32071;49.036;9.344;2023-12-04T00:34:02;22.67;;;11.40;;
46363;SDS011;32071;49.036;9.344;2023-12-04T00:36:28;18.70;;;9.30;;
46363;SDS011;32071;49.036;9.344;2023-12-04T00:38:53;20.63;;;9.57;;
46363;SDS011;32071;49.036;9.344;2023-12-04T00:41:19;21.63;;;9.97;;
46363;SDS011;32071;49.036;9.344;2023-12-04T00:43:44;14.03;;;7.73;;
46363;SDS011;32071;49.036;9.344;2023-12-04T00:46:10;14.03;;;7.17;;
46363;SDS011;32071;49.036;9.344;2023-12-04T00:48:35;18.23;;;7.70;;
46363;SDS011;32071;49.036;9.344;2023-12-04T00:51:01;15.63;;;8.10;;
46363;SDS011;32071;49.036;9.344;2023-12-04T00:53:27;14.10;;;7.50;;
46363;SDS011;32071;49.036;9.344;2023-12-04T00:55:52;15.43;;;8.73;;
46363;SDS011;32071;49.036;9.344;2023-12-04T00:58:18;20.63;;;9.00;;
46363;SDS011;32071;49.036;9.344;2023-12-04T01:00:43;20.67;;;9.23;;
46363;SDS011;32071;49.036;9.344;2023-12-04T01:03:09;13.63;;;7.47;;
46363;SDS011;32071;49.036;9.344;2023-12-04T01:05:34;15.87;;;7.53;;
46363;SDS011;32071;49.036;9.344;2023-12-04T01:08:00;14.40;;;6.73;;
46363;SDS011;32071;49.036;9.344;2023-12-04T01:10:25;13.63;;;7.77;;
46363;SDS011;32071;49.036;9.344;2023-12-04T01:12:51;16.70;;;8.10;;
46363;SDS011;32071;49.036;9.344;2023-12-04T01:15:17;17.10;;;8.10;;
46363;SDS011;32071;49.036;9.344;2023-12-04T01:17:42;16.40;;;7.93;;
46363;SDS011;32071;49.036;9.344;2023-12-04T01:20:08;15.93;;;7.57;;
46363;SDS011;32071;49.036;9.344;2023-12-04T01:22:34;14.63;;;7.63;;
46363;SDS011;32071;49.036;9.344;2023-12-04T01:24:59;13.90;;;6.67;;
46363;SDS011;32071;49.036;9.344;2023-12-04T01:27:25;16.60;;;7.87;;
46363;SDS011;32071;49.036;9.344;2023-12-04T01:29:50;17.23;;;6.97;;
46363;SDS011;32071;49.036;9.344;2023-12-04T01:32:16;13.00;;;6.80;;
46363;SDS011;32071;49.036;9.344;2023-12-04T01:34:41;14.00;;;7.03;;
46363;SDS011;32071;49.036;9.344;2023-12-04T01:37:07;16.57;;;7.53;;
46363;SDS011;32071;49.036;9.344;2023-12-04T01:39:33;14.23;;;6.83;;
46363;SDS011;32071;49.036;9.344;2023-12-04T01:41:59;12.50;;;7.43;;
46363;SDS011;32071;49.036;9.344;2023-12-04T01:44:24;14.20;;;7.13;;
46363;SDS011;32071;49.036;9.344;2023-12-04T01:46:50;12.23;;;6.33;;
46363;SDS011;32071;49.036;9.344;2023-12-04T01:49:16;9.63;;;5.43;;
46363;SDS011;32071;49.036;9.344;2023-12-04T01:51:42;12.37;;;6.90;;
46363;SDS011;32071;49.036;9.344;2023-12-04T01:54:08;16.90;;;7.80;;
46363;SDS011;32071;49.036;9.344;2023-12-04T01:56:34;14.47;;;6.83;;
46363;SDS011;32071;49.036;9.344;2023-12-04T01:59:02;12.40;;;6.80;;
46363;SDS011;32071;49.036;9.344;2023-12-04T02:01:28;11.70;;;7.00;;
46363;SDS011;32071;49.036;9.344;2023-12-04T02:03:55;13.90;;;6.50;;
46363;SDS011;32071;49.036;9.344;2023-12-04T02:06:22;15.63;;;7.03;;
46363;SDS011;32071;49.036;9.344;2023-12-04T02:08:48;14.80;;;7.80;;
46363;SDS011;32071;49.036;9.344;2023-12-04T02:11:14;14.80;;;7.20;;
46363;SDS011;32071;49.036;9.344;2023-12-04T02:13:39;15.27;;;7.10;;
46363;SDS011;32071;49.036;9.344;2023-12-04T02:16:05;16.33;;;8.20;;
46363;SDS011;32071;49.036;9.344;2023-12-04T02:18:34;14.03;;;7.50;;
46363;SDS011;32071;49.036;9.344;2023-12-04T02:21:01;15.50;;;8.20;;
46363;SDS011;32071;49.036;9.344;2023-12-04T02:23:27;14.03;;;7.00;;
46363;SDS011;32071;49.036;9.344;2023-12-04T02:25:58;15.67;;;7.17;;
46363;SDS011;32071;49.036;9.344;2023-12-04T02:28:26;13.17;;;6.37;;
46363;SDS011;32071;49.036;9.344;2023-12-04T02:30:55;12.13;;;6.60;;
46363;SDS011;32071;49.036;9.344;2023-12-04T02:33:23;16.00;;;7.93;;
46363;SDS011;32071;49.036;9.344;2023-12-04T02:35:51;19.47;;;8.30;;
46363;SDS011;32071;49.036;9.344;2023-12-04T02:38:18;15.50;;;7.37;;
46363;SDS011;32071;49.036;9.344;2023-12-04T02:40:44;13.90;;;6.83;;
46363;SDS011;32071;49.036;9.344;2023-12-04T02:43:10;13.83;;;6.40;;
46363;SDS011;32071;49.036;9.344;2023-12-04T02:45:35;12.27;;;6.47;;
46363;SDS011;32071;49.036;9.344;2023-12-04T02:48:01;13.77;;;6.30;;
46363;SDS011;32071;49.036;9.344;2023-12-04T02:50:27;15.47;;;6.80;;
46363;SDS011;32071;49.036;9.344;2023-12-04T02:52:52;12.90;;;6.20;;
46363;SDS011;32071;49.036;9.344;2023-12-04T02:55:18;12.63;;;6.30;;
46363;SDS011;32071;49.036;9.344;2023-12-04T02:57:44;12.40;;;6.13;;
46363;SDS011;32071;49.036;9.344;2023-12-04T03:00:10;14.20;;;6.80;;
46363;SDS011;32071;49.036;9.344;2023-12-04T03:02:36;14.73;;;6.87;;
46363;SDS011;32071;49.036;9.344;2023-12-04T03:05:01;11.43;;;6.50;;
46363;SDS011;32071;49.036;9.344;2023-12-04T03:07:27;15.67;;;8.23;;
46363;SDS011;32071;49.036;9.344;2023-12-04T03:09:53;16.97;;;7.50;;
46363;SDS011;32071;49.036;9.344;2023-12-04T03:12:18;13.60;;;7.20;;
46363;SDS011;32071;49.036;9.344;2023-12-04T03:14:44;13.30;;;7.60;;
46363;SDS011;32071;49.036;9.344;2023-12-04T03:17:09;16.17;;;7.80;;
46363;SDS011;32071;49.036;9.344;2023-12-04T03:19:35;14.87;;;7.20;;
46363;SDS011;32071;49.036;9.344;2023-12-04T03:22:01;17.90;;;8.47;;
46363;SDS011;32071;49.036;9.344;2023-12-04T03:24:27;13.77;;;7.77;;
46363;SDS011;32071;49.036;9.344;2023-12-04T03:26:52;15.97;;;7.30;;
46363;SDS011;32071;49.036;9.344;2023-12-04T03:29:18;15.07;;;7.03;;
46363;SDS011;32071;49.036;9.344;2023-12-04T03:31:43;14.03;;;6.30;;
46363;SDS011;32071;49.036;9.344;2023-12-04T03:34:09;10.73;;;6.63;;
46363;SDS011;32071;49.036;9.344;2023-12-04T03:36:35;10.33;;;6.70;;
46363;SDS011;32071;49.036;9.344;2023-12-04T03:39:00;16.23;;;7.07;;
46363;SDS011;32071;49.036;9.344;2023-12-04T03:41:26;12.57;;;6.40;;
46363;SDS011;32071;49.036;9.344;2023-12-04T03:43:51;13.63;;;6.23;;
46363;SDS011;32071;49.036;9.344;2023-12-04T03:46:17;11.43;;;6.83;;
46363;SDS011;32071;49.036;9.344;2023-12-04T03:48:43;13.17;;;6.90;;
46363;SDS011;32071;49.036;9.344;2023-12-04T03:51:08;14.87;;;7.43;;
46363;SDS011;32071;49.036;9.344;2023-12-04T03:53:34;17.50;;;7.90;;
46363;SDS011;32071;49.036;9.344;2023-12-04T03:56:00;13.00;;;6.83;;
46363;SDS011;32071;49.036;9.344;2023-12-04T03:58:25;15.00;;;7.07;;
46363;SDS011;32071;49.036;9.344;2023-12-04T04:00:51;13.70;;;7.30;;
46363;SDS011;32071;49.036;9.344;2023-12-04T04:03:16;18.93;;;8.10;;
46363;SDS011;32071;49.036;9.344;2023-12-04T04:05:42;22.27;;;9.33;;
46363;SDS011;32071;49.036;9.344;2023-12-04T04:08:08;13.47;;;7.70;;
46363;SDS011;32071;49.036;9.344;2023-12-04T04:10:34;10.77;;;6.17;;
46363;SDS011;32071;49.036;9.344;2023-12-04T04:12:59;11.00;;;5.90;;
46363;SDS011;32071;49.036;9.344;2023-12-04T04:15:25;12.40;;;6.60;;
46363;SDS011;32071;49.036;9.344;2023-12-04T04:17:51;14.83;;;7.13;;
46363;SDS011;32071;49.036;9.344;2023-12-04T04:20:17;12.40;;;5.90;;
46363;SDS011;32071;49.036;9.344;2023-12-04T04:22:42;14.70;;;6.80;;
46363;SDS011;32071;49.036;9.344;2023-12-04T04:25:08;14.60;;;7.37;;
46363;SDS011;32071;49.036;9.344;2023-12-04T04:27:34;12.10;;;6.17;;
46363;SDS011;32071;49.036;9.344;2023-12-04T04:30:00;14.60;;;6.10;;
46363;SDS011;32071;49.036;9.344;2023-12-04T04:32:26;12.60;;;7.07;;
46363;SDS011;32071;49.036;9.344;2023-12-04T04:34:51;16.30;;;7.30;;
46363;SDS011;32071;49.036;9.344;2023-12-04T04:37:17;15.73;;;8.20;;
46363;SDS011;32071;49.036;9.344;2023-12-04T04:39:44;14.27;;;7.77;;
46363;SDS011;32071;49.036;9.344;2023-12-04T04:42:09;17.00;;;8.13;;
46363;SDS011;32071;49.036;9.344;2023-12-04T04:44:35;14.57;;;8.10;;
46363;SDS011;32071;49.036;9.344;2023-12-04T04:47:00;17.57;;;8.20;;
46363;SDS011;32071;49.036;9.344;2023-12-04T04:49:26;15.60;;;7.57;;
46363;SDS011;32071;49.036;9.344;2023-12-04T04:51:51;16.77;;;7.73;;
46363;SDS011;32071;49.036;9.344;2023-12-04T04:54:17;14.10;;;6.43;;
46363;SDS011;32071;49.036;9.344;2023-12-04T04:56:42;20.27;;;9.20;;
46363;SDS011;32071;49.036;9.344;2023-12-04T04:59:08;19.03;;;10.10;;
46363;SDS011;32071;49.036;9.344;2023-12-04T05:01:33;20.10;;;9.13;;
46363;SDS011;32071;49.036;9.344;2023-12-04T05:03:59;15.50;;;7.60;;
46363;SDS011;32071;49.036;9.344;2023-12-04T05:06:25;16.53;;;9.70;;
46363;SDS011;32071;49.036;9.344;2023-12-04T05:08:50;18.40;;;10.00;;
46363;SDS011;32071;49.036;9.344;2023-12-04T05:11:17;19.87;;;9.97;;
46363;SDS011;32071;49.036;9.344;2023-12-04T05:13:44;17.67;;;8.77;;
46363;SDS011;32071;49.036;9.344;2023-12-04T05:16:10;28.67;;;13.90;;
46363;SDS011;32071;49.036;9.344;2023-12-04T05:18:35;23.80;;;12.77;;
46363;SDS011;32071;49.036;9.344;2023-12-04T05:21:01;21.77;;;10.90;;
46363;SDS011;32071;49.036;9.344;2023-12-04T05:23:27;21.07;;;10.43;;
46363;SDS011;32071;49.036;9.344;2023-12-04T05:25:53;15.13;;;8.10;;
46363;SDS011;32071;49.036;9.344;2023-12-04T05:28:18;17.77;;;8.70;;
46363;SDS011;32071;49.036;9.344;2023-12-04T05:30:44;14.53;;;9.23;;
46363;SDS011;32071;49.036;9.344;2023-12-04T05:33:10;19.00;;;10.40;;
46363;SDS011;32071;49.036;9.344;2023-12-04T05:35:35;17.77;;;9.10;;
46363;SDS011;32071;49.036;9.344;2023-12-04T05:38:02;16.20;;;9.50;;
46363;SDS011;32071;49.036;9.344;2023-12-04T05:40:28;17.23;;;10.30;;
46363;SDS011;32071;49.036;9.344;2023-12-04T05:42:53;17.20;;;9.27;;
46363;SDS011;32071;49.036;9.344;2023-12-04T05:45:19;17.23;;;8.80;;
46363;SDS011;32071;49.036;9.344;2023-12-04T05:47:44;15.30;;;9.20;;
46363;SDS011;32071;49.036;9.344;2023-12-04T05:50:10;15.47;;;8.73;;
46363;SDS011;32071;49.036;9.344;2023-12-04T05:52:35;18.00;;;8.60;;
46363;SDS011;32071;49.036;9.344;2023-12-04T05:55:01;17.93;;;8.30;;
46363;SDS011;32071;49.036;9.344;2023-12-04T05:57:27;16.70;;;8.27;;
46363;SDS011;32071;49.036;9.344;2023-12-04T05:59:52;16.60;;;7.83;;
46363;SDS011;32071;49.036;9.344;2023-12-04T06:02:18;15.27;;;7.43;;
46363;SDS011;32071;49.036;9.344;2023-12-04T06:04:44;17.60;;;8.93;;
46363;SDS011;32071;49.036;9.344;2023-12-04T06:07:09;16.23;;;8.90;;
46363;SDS011;32071;49.036;9.344;2023-12-04T06:09:35;15.87;;;8.40;;
46363;SDS011;32071;49.036;9.344;2023-12-04T06:12:02;12.93;;;8.00;;
46363;SDS011;32071;49.036;9.344;2023-12-04T06:14:32;15.73;;;8.30;;
46363;SDS011;32071;49.036;9.344;2023-12-04T06:16:58;18.03;;;8.80;;
46363;SDS011;32071;49.036;9.344;2023-12-04T06:19:24;17.37;;;9.27;;
46363;SDS011;32071;49.036;9.344;2023-12-04T06:21:50;17.90;;;9.83;;
46363;SDS011;32071;49.036;9.344;2023-12-04T06:24:15;18.70;;;10.10;;
46363;SDS011;32071;49.036;9.344;2023-12-04T06:26:41;15.73;;;8.43;;
46363;SDS011;32071;49.036;9.344;2023-12-04T06:29:08;14.50;;;7.90;;
46363;SDS011;32071;49.036;9.344;2023-12-04T06:31:34;13.90;;;7.10;;
46363;SDS011;32071;49.036;9.344;2023-12-04T06:34:00;35.47;;;17.83;;
46363;SDS011;32071;49.036;9.344;2023-12-04T06:36:26;27.00;;;13.73;;
46363;SDS011;32071;49.036;9.344;2023-12-04T06:38:56;19.30;;;8.80;;
46363;SDS011;32071;49.036;9.344;2023-12-04T06:41:23;16.27;;;8.67;;
46363;SDS011;32071;49.036;9.344;2023-12-04T06:43:49;14.40;;;8.70;;
46363;SDS011;32071;49.036;9.344;2023-12-04T06:46:15;19.93;;;9.93;;
46363;SDS011;32071;49.036;9.344;2023-12-04T06:48:43;19.93;;;11.00;;
46363;SDS011;32071;49.036;9.344;2023-12-04T06:51:09;22.20;;;9.57;;
46363;SDS011;32071;49.036;9.344;2023-12-04T06:53:34;19.80;;;9.23;;
46363;SDS011;32071;49.036;9.344;2023-12-04T06:56:00;18.23;;;9.30;;
46363;SDS011;32071;49.036;9.344;2023-12-04T06:58:25;15.50;;;8.57;;
46363;SDS011;32071;49.036;9.344;2023-12-04T07:00:51;13.77;;;7.37;;
46363;SDS011;32071;49.036;9.344;2023-12-04T07:03:18;16.47;;;6.50;;
46363;SDS011;32071;49.036;9.344;2023-12-04T07:05:43;8.37;;;5.20;;
46363;SDS011;32071;49.036;9.344;2023-12-04T07:08:09;11.10;;;5.53;;
46363;SDS011;32071;49.036;9.344;2023-12-04T07:10:35;8.80;;;5.03;;
46363;SDS011;32071;49.036;9.344;2023-12-04T07:13:01;10.00;;;5.00;;
46363;SDS011;32071;49.036;9.344;2023-12-04T07:15:26;12.90;;;6.43;;
46363;SDS011;32071;49.036;9.344;2023-12-04T07:17:52;9.30;;;5.00;;
46363;SDS011;32071;49.036;9.344;2023-12-04T07:20:17;11.40;;;5.50;;
46363;SDS011;32071;49.036;9.344;2023-12-04T07:22:43;7.23;;;4.53;;
46363;SDS011;32071;49.036;9.344;2023-12-04T07:25:09;9.60;;;4.30;;
46363;SDS011;32071;49.036;9.344;2023-12-04T07:27:35;9.43;;;4.63;;
46363;SDS011;32071;49.036;9.344;2023-12-04T07:30:00;6.43;;;4.47;;
46363;SDS011;32071;49.036;9.344;2023-12-04T07:32:27;11.13;;;5.50;;
46363;SDS011;32071;49.036;9.344;2023-12-04T07:34:52;10.23;;;5.20;;
46363;SDS011;32071;49.036;9.344;2023-12-04T07:37:18;9.73;;;5.00;;
46363;SDS011;32071;49.036;9.344;2023-12-04T07:39:43;8.50;;;5.00;;
46363;SDS011;32071;49.036;9.344;2023-12-04T07:42:11;10.57;;;6.00;;
46363;SDS011;32071;49.036;9.344;2023-12-04T07:44:37;9.17;;;4.93;;
46363;SDS011;32071;49.036;9.344;2023-12-04T07:47:02;6.53;;;4.07;;
46363;SDS011;32071;49.036;9.344;2023-12-04T07:49:28;7.77;;;5.30;;
46363;SDS011;32071;49.036;9.344;2023-12-04T07:51:54;41.37;;;14.83;;
46363;SDS011;32071;49.036;9.344;2023-12-04T07:54:19;15.53;;;8.47;;
46363;SDS011;32071;49.036;9.344;2023-12-04T07:56:45;14.47;;;6.53;;
46363;SDS011;32071;49.036;9.344;2023-12-04T07:59:10;11.13;;;6.17;;
46363;SDS011;32071;49.036;9.344;2023-12-04T08:01:36;11.53;;;6.00;;
46363;SDS011;32071;49.036;9.344;2023-12-04T08:04:01;9.30;;;4.93;;
46363;SDS011;32071;49.036;9.344;2023-12-04T08:06:27;10.03;;;5.30;;
46363;SDS011;32071;49.036;9.344;2023-12-04T08:08:53;11.67;;;6.27;;
46363;SDS011;32071;49.036;9.344;2023-12-04T08:11:19;11.83;;;6.80;;
46363;SDS011;32071;49.036;9.344;2023-12-04T08:13:45;17.57;;;8.90;;
46363;SDS011;32071;49.036;9.344;2023-12-04T08:16:14;21.30;;;12.27;;
46363;SDS011;32071;49.036;9.344;2023-12-04T08:18:40;13.10;;;8.30;;
46363;SDS011;32071;49.036;9.344;2023-12-04T08:21:06;15.23;;;7.63;;
46363;SDS011;32071;49.036;9.344;2023-12-04T08:23:32;13.40;;;8.40;;
46363;SDS011;32071;49.036;9.344;2023-12-04T08:25:58;11.47;;;7.10;;
46363;SDS011;32071;49.036;9.344;2023-12-04T08:28:24;13.90;;;6.63;;
46363;SDS011;32071;49.036;9.344;2023-12-04T08:30:49;9.20;;;5.60;;
46363;SDS011;32071;49.036;9.344;2023-12-04T08:33:15;11.40;;;6.37;;
46363;SDS011;32071;49.036;9.344;2023-12-04T08:35:40;9.30;;;5.53;;
46363;SDS011;32071;49.036;9.344;2023-12-04T08:38:06;11.50;;;5.80;;
46363;SDS011;32071;49.036;9.344;2023-12-04T08:40:32;12.77;;;7.13;;
46363;SDS011;32071;49.036;9.344;2023-12-04T08:42:57;9.70;;;5.60;;
46363;SDS011;32071;49.036;9.344;2023-12-04T08:45:23;8.20;;;5.50;;
46363;SDS011;32071;49.036;9.344;2023-12-04T08:47:49;17.40;;;8.80;;
46363;SDS011;32071;49.036;9.344;2023-12-04T08:50:14;13.27;;;8.43;;
46363;SDS011;32071;49.036;9.344;2023-12-04T08:52:40;18.70;;;9.60;;
46363;SDS011;32071;49.036;9.344;2023-12-04T08:55:07;13.30;;;8.10;;
46363;SDS011;32071;49.036;9.344;2023-12-04T08:57:32;14.60;;;7.93;;
46363;SDS011;32071;49.036;9.344;2023-12-04T08:59:58;10.53;;;6.93;;
46363;SDS011;32071;49.036;9.344;2023-12-04T09:02:24;13.13;;;7.70;;
46363;SDS011;32071;49.036;9.344;2023-12-04T09:04:49;14.23;;;8.73;;
46363;SDS011;32071;49.036;9.344;2023-12-04T09:07:15;15.17;;;6.90;;
46363;SDS011;32071;49.036;9.344;2023-12-04T09:09:40;13.73;;;7.83;;
46363;SDS011;32071;49.036;9.344;2023-12-04T09:12:06;21.57;;;12.40;;
46363;SDS011;32071;49.036;9.344;2023-12-04T09:14:33;28.90;;;15.30;;
46363;SDS011;32071;49.036;9.344;2023-12-04T09:16:59;25.40;;;14.57;;
46363;SDS011;32071;49.036;9.344;2023-12-04T09:19:25;21.03;;;10.73;;
46363;SDS011;32071;49.036;9.344;2023-12-04T09:21:50;18.10;;;9.40;;
46363;SDS011;32071;49.036;9.344;2023-12-04T09:24:16;18.43;;;8.40;;
46363;SDS011;32071;49.036;9.344;2023-12-04T09:26:41;14.23;;;8.43;;
46363;SDS011;32071;49.036;9.344;2023-12-04T09:29:08;17.77;;;8.97;;
46363;SDS011;32071;49.036;9.344;2023-12-04T09:31:35;14.90;;;8.80;;
46363;SDS011;32071;49.036;9.344;2023-12-04T09:34:01;16.77;;;8.17;;
46363;SDS011;32071;49.036;9.344;2023-12-04T09:36:26;17.37;;;10.10;;
46363;SDS011;32071;49.036;9.344;2023-12-04T09:38:52;19.60;;;11.27;;
46363;SDS011;32071;49.036;9.344;2023-12-04T09:41:18;20.80;;;12.07;;
46363;SDS011;32071;49.036;9.344;2023-12-04T09:43:44;22.87;;;12.37;;
46363;SDS011;32071;49.036;9.344;2023-12-04T09:46:11;19.83;;;11.07;;
46363;SDS011;32071;49.036;9.344;2023-12-04T09:48:36;14.23;;;8.03;;
46363;SDS011;32071;49.036;9.344;2023-12-04T09:51:03;14.37;;;7.10;;
46363;SDS011;32071;49.036;9.344;2023-12-04T09:53:29;12.97;;;6.40;;
46363;SDS011;32071;49.036;9.344;2023-12-04T09:55:57;11.30;;;5.90;;
46363;SDS011;32071;49.036;9.344;2023-12-04T09:58:25;7.50;;;5.00;;
46363;SDS011;32071;49.036;9.344;2023-12-04T10:00:54;16.80;;;9.60;;
46363;SDS011;32071;49.036;9.344;2023-12-04T10:03:20;12.80;;;8.00;;
46363;SDS011;32071;49.036;9.344;2023-12-04T10:05:46;20.97;;;9.47;;
46363;SDS011;32071;49.036;9.344;2023-12-04T10:08:13;15.60;;;8.90;;
46363;SDS011;32071;49.036;9.344;2023-12-04T10:10:39;16.97;;;9.70;;
46363;SDS011;32071;49.036;9.344;2023-12-04T10:13:05;14.53;;;8.60;;
46363;SDS011;32071;49.036;9.344;2023-12-04T10:15:31;12.03;;;7.37;;
46363;SDS011;32071;49.036;9.344;2023-12-04T10:17:57;13.87;;;7.53;;
46363;SDS011;32071;49.036;9.344;2023-12-04T10:20:23;13.17;;;7.40;;
46363;SDS011;32071;49.036;9.344;2023-12-04T10:22:56;15.23;;;7.80;;
46363;SDS011;32071;49.036;9.344;2023-12-04T10:25:23;10.77;;;6.77;;
46363;SDS011;32071;49.036;9.344;2023-12-04T10:27:50;11.27;;;6.90;;
46363;SDS011;32071;49.036;9.344;2023-12-04T10:30:25;10.43;;;6.20;;
46363;SDS011;32071;49.036;9.344;2023-12-04T10:32:56;12.20;;;6.40;;
46363;SDS011;32071;49.036;9.344;2023-12-04T10:35:25;7.87;;;5.00;;
46363;SDS011;32071;49.036;9.344;2023-12-04T10:37:54;9.83;;;5.70;;
46363;SDS011;32071;49.036;9.344;2023-12-04T10:40:27;10.03;;;6.83;;
46363;SDS011;32071;49.036;9.344;2023-12-04T10:43:09;15.13;;;6.00;;
46363;SDS011;32071;49.036;9.344;2023-12-04T10:45:43;11.07;;;7.07;;
46363;SDS011;32071;49.036;9.344;2023-12-04T10:48:11;14.77;;;9.10;;
46363;SDS011;32071;49.036;9.344;2023-12-04T10:50:38;11.67;;;6.67;;
46363;SDS011;32071;49.036;9.344;2023-12-04T10:53:16;9.33;;;5.73;;
46363;SDS011;32071;49.036;9.344;2023-12-04T10:55:42;9.47;;;6.23;;
46363;SDS011;32071;49.036;9.344;2023-12-04T10:58:13;12.13;;;6.00;;
46363;SDS011;32071;49.036;9.344;2023-12-04T11:00:47;8.87;;;5.80;;
46363;SDS011;32071;49.036;9.344;2023-12-04T11:03:18;12.17;;;6.80;;
46363;SDS011;32071;49.036;9.344;2023-12-04T11:06:01;14.00;;;8.00;;
46363;SDS011;32071;49.036;9.344;2023-12-04T11:08:29;12.83;;;7.93;;
46363;SDS011;32071;49.036;9.344;2023-12-04T11:13:28;10.17;;;6.50;;
46363;SDS011;32071;49.036;9.344;2023-12-04T11:16:02;9.60;;;6.53;;
46363;SDS011;32071;49.036;9.344;2023-12-04T11:18:36;10.10;;;6.50;;
46363;SDS011;32071;49.036;9.344;2023-12-04T11:21:07;10.50;;;6.60;;
46363;SDS011;32071;49.036;9.344;2023-12-04T11:23:34;9.13;;;5.87;;
46363;SDS011;32071;49.036;9.344;2023-12-04T11:26:00;12.30;;;6.70;;
46363;SDS011;32071;49.036;9.344;2023-12-04T11:28:27;11.20;;;6.10;;
46363;SDS011;32071;49.036;9.344;2023-12-04T11:30:54;11.53;;;6.60;;
46363;SDS011;32071;49.036;9.344;2023-12-04T11:33:20;7.50;;;5.30;;
46363;SDS011;32071;49.036;9.344;2023-12-04T11:35:46;10.90;;;5.63;;
46363;SDS011;32071;49.036;9.344;2023-12-04T11:38:15;7.93;;;4.60;;
46363;SDS011;32071;49.036;9.344;2023-12-04T11:40:42;12.40;;;7.70;;
46363;SDS011;32071;49.036;9.344;2023-12-04T11:46:07;21.20;;;9.87;;
46363;SDS011;32071;49.036;9.344;2023-12-04T11:48:34;10.73;;;6.53;;
46363;SDS011;32071;49.036;9.344;2023-12-04T11:51:02;10.70;;;7.20;;
46363;SDS011;32071;49.036;9.344;2023-12-04T11:53:28;10.80;;;6.43;;
46363;SDS011;32071;49.036;9.344;2023-12-04T11:55:55;13.53;;;9.67;;
46363;SDS011;32071;49.036;9.344;2023-12-04T11:58:23;12.40;;;6.07;;
46363;SDS011;32071;49.036;9.344;2023-12-04T12:00:49;11.80;;;5.70;;
46363;SDS011;32071;49.036;9.344;2023-12-04T12:03:17;8.63;;;6.03;;
46363;SDS011;32071;49.036;9.344;2023-12-04T12:05:43;7.90;;;5.67;;
46363;SDS011;32071;49.036;9.344;2023-12-04T12:08:09;12.93;;;6.80;;
46363;SDS011;32071;49.036;9.344;2023-12-04T12:10:35;12.30;;;7.07;;
46363;SDS011;32071;49.036;9.344;2023-12-04T12:13:01;13.67;;;7.00;;
46363;SDS011;32071;49.036;9.344;2023-12-04T12:15:27;8.43;;;5.17;;
46363;SDS011;32071;49.036;9.344;2023-12-04T12:17:53;9.73;;;6.77;;
46363;SDS011;32071;49.036;9.344;2023-12-04T12:20:18;11.37;;;6.77;;
46363;SDS011;32071;49.036;9.344;2023-12-04T12:22:48;11.00;;;6.43;;
46363;SDS011;32071;49.036;9.344;2023-12-04T12:25:14;10.30;;;5.50;;
46363;SDS011;32071;49.036;9.344;2023-12-04T12:27:40;9.00;;;6.27;;
46363;SDS011;32071;49.036;9.344;2023-12-04T12:30:06;10.67;;;6.07;;
46363;SDS011;32071;49.036;9.344;2023-12-04T12:32:35;10.83;;;6.77;;
46363;SDS011;32071;49.036;9.344;2023-12-04T12:35:01;13.73;;;8.10;;
46363;SDS011;32071;49.036;9.344;2023-12-04T12:37:28;15.80;;;8.10;;
46363;SDS011;32071;49.036;9.344;2023-12-04T12:39:54;15.70;;;10.77;;
46363;SDS011;32071;49.036;9.344;2023-12-04T12:42:29;16.57;;;11.90;;
46363;SDS011;32071;49.036;9.344;2023-12-04T12:44:55;15.43;;;9.43;;
46363;SDS011;32071;49.036;9.344;2023-12-04T12:47:24;14.50;;;9.17;;
46363;SDS011;32071;49.036;9.344;2023-12-04T12:49:49;9.87;;;7.57;;
46363;SDS011;32071;49.036;9.344;2023-12-04T12:52:15;12.27;;;7.90;;
46363;SDS011;32071;49.036;9.344;2023-12-04T12:54:41;10.63;;;7.03;;
46363;SDS011;32071;49.036;9.344;2023-12-04T12:57:08;12.43;;;8.03;;
46363;SDS011;32071;49.036;9.344;2023-12-04T12:59:34;13.87;;;9.00;;
46363;SDS011;32071;49.036;9.344;2023-12-04T13:02:00;11.60;;;8.20;;
46363;SDS011;32071;49.036;9.344;2023-12-04T13:04:26;16.40;;;10.43;;
46363;SDS011;32071;49.036;9.344;2023-12-04T13:07:08;16.77;;;8.30;;
46363;SDS011;32071;49.036;9.344;2023-12-04T13:09:34;12.73;;;7.60;;
46363;SDS011;32071;49.036;9.344;2023-12-04T13:12:03;10.40;;;6.93;;
46363;SDS011;32071;49.036;9.344;2023-12-04T13:14:29;12.90;;;7.53;;
46363;SDS011;32071;49.036;9.344;2023-12-04T13:16:55;14.53;;;8.97;;
46363;SDS011;32071;49.036;9.344;2023-12-04T13:19:22;24.20;;;14.40;;
46363;SDS011;32071;49.036;9.344;2023-12-04T13:21:48;16.60;;;8.83;;
46363;SDS011;32071;49.036;9.344;2023-12-04T13:24:14;14.30;;;8.73;;
46363;SDS011;32071;49.036;9.344;2023-12-04T13:26:40;14.77;;;8.43;;
46363;SDS011;32071;49.036;9.344;2023-12-04T13:29:05;12.63;;;8.63;;
46363;SDS011;32071;49.036;9.344;2023-12-04T13:31:31;17.73;;;10.50;;
46363;SDS011;32071;49.036;9.344;2023-12-04T13:33:58;17.33;;;10.23;;
46363;SDS011;32071;49.036;9.344;2023-12-04T13:36:23;17.53;;;11.13;;
46363;SDS011;32071;49.036;9.344;2023-12-04T13:38:49;15.80;;;10.03;;
46363;SDS011;32071;49.036;9.344;2023-12-04T13:41:15;15.43;;;9.93;;
46363;SDS011;32071;49.036;9.344;2023-12-04T13:43:59;12.57;;;8.27;;
46363;SDS011;32071;49.036;9.344;2023-12-04T13:46:25;15.73;;;9.57;;
46363;SDS011;32071;49.036;9.344;2023-12-04T13:48:54;12.03;;;8.07;;
46363;SDS011;32071;49.036;9.344;2023-12-04T13:51:23;15.33;;;8.13;;
46363;SDS011;32071;49.036;9.344;2023-12-04T13:53:50;18.10;;;9.67;;
46363;SDS011;32071;49.036;9.344;2023-12-04T13:56:21;19.77;;;11.00;;
46363;SDS011;32071;49.036;9.344;2023-12-04T13:58:47;14.47;;;8.77;;
46363;SDS011;32071;49.036;9.344;2023-12-04T14:01:18;10.67;;;7.00;;
46363;SDS011;32071;49.036;9.344;2023-12-04T14:03:48;10.53;;;6.90;;
46363;SDS011;32071;49.036;9.344;2023-12-04T14:06:13;12.63;;;7.80;;
46363;SDS011;32071;49.036;9.344;2023-12-04T14:08:42;26.50;;;13.70;;
46363;SDS011;32071;49.036;9.344;2023-12-04T14:11:08;19.93;;;11.00;;
46363;SDS011;32071;49.036;9.344;2023-12-04T14:13:36;16.73;;;10.50;;
46363;SDS011;32071;49.036;9.344;2023-12-04T14:16:01;20.80;;;12.07;;
46363;SDS011;32071;49.036;9.344;2023-12-04T14:18:28;20.43;;;12.07;;
46363;SDS011;32071;49.036;9.344;2023-12-04T14:20:55;22.50;;;11.13;;
46363;SDS011;32071;49.036;9.344;2023-12-04T14:23:21;18.53;;;12.20;;
46363;SDS011;32071;49.036;9.344;2023-12-04T14:25:46;21.67;;;11.67;;
46363;SDS011;32071;49.036;9.344;2023-12-04T14:28:12;22.60;;;14.27;;
46363;SDS011;32071;49.036;9.344;2023-12-04T14:30:38;26.73;;;14.27;;
46363;SDS011;32071;49.036;9.344;2023-12-04T14:33:03;23.43;;;13.10;;